Time;durP1;ratioP1;P1;durP2;ratioP2;P2;SDS_P1;SDS_P2;PMS_P1;PMS_P2;Temp;Humidity;BMP_temperature;BMP_pressure;BME280_temperature;BME280_humidity;BME280_pressure;Samples;Min_cycle;Max_cycle;Signal;HPM_P1;HPM_P2
2022/04/24 00:01:12;;;;;;;16.55;8.45;;;;;;;14.27;68.60;99553.25;5028014;28;20132;-33
2022/04/24 00:03:38;;;;;;;15.85;8.23;;;;;;;14.18;69.22;99552.09;5027881;28;20022;-31
2022/04/24 00:06:03;;;;;;;14.68;7.93;;;;;;;14.27;67.88;99550.56;5027660;28;20060;-29
2022/04/24 00:08:29;;;;;;;14.10;7.78;;;;;;;13.79;70.03;99566.50;5027631;28;20501;-33
2022/04/24 00:10:54;;;;;;;11.65;7.53;;;;;;;13.45;72.06;99555.13;5027728;28;20025;-29
2022/04/24 00:13:20;;;;;;;13.98;7.57;;;;;;;13.47;71.78;99558.38;5027703;28;20378;-29
2022/04/24 00:15:46;;;;;;;12.38;7.70;;;;;;;13.44;72.53;99569.56;5027804;28;20029;-33
2022/04/24 00:18:11;;;;;;;22.42;8.10;;;;;;;13.64;71.99;99569.78;5027788;28;20041;-28
2022/04/24 00:20:37;;;;;;;17.80;7.90;;;;;;;13.49;70.68;99561.59;5027459;28;20116;-31
2022/04/24 00:23:03;;;;;;;12.52;7.07;;;;;;;13.66;69.65;99556.97;5027640;28;20032;-30
2022/04/24 00:25:29;;;;;;;20.00;8.55;;;;;;;14.01;68.71;99573.66;5027204;28;20171;-32
2022/04/24 00:27:54;;;;;;;14.82;8.10;;;;;;;13.68;69.23;99580.03;5027759;28;20482;-29
2022/04/24 00:30:20;;;;;;;14.88;7.70;;;;;;;13.25;71.21;99583.22;5027347;28;20561;-30
2022/04/24 00:32:45;;;;;;;15.65;7.63;;;;;;;13.35;71.20;99582.59;5027536;28;20033;-29
2022/04/24 00:35:11;;;;;;;12.52;7.55;;;;;;;13.03;73.37;99590.44;5025591;28;20040;-29
2022/04/24 00:37:36;;;;;;;12.40;8.05;;;;;;;13.28;71.41;99576.59;5026987;28;20036;-30
2022/04/24 00:40:02;;;;;;;13.18;8.32;;;;;;;13.31;71.12;99586.03;5027118;28;20034;-29
2022/04/24 00:42:29;;;;;;;15.25;8.15;;;;;;;13.58;69.79;99592.22;5026592;28;20029;-31
2022/04/24 00:44:55;;;;;;;13.70;7.30;;;;;;;13.55;69.77;99590.06;5027609;28;20033;-29
2022/04/24 00:47:22;;;;;;;12.32;7.50;;;;;;;13.49;70.32;99577.66;5027192;28;20497;-32
2022/04/24 00:49:48;;;;;;;12.88;7.85;;;;;;;13.22;71.35;99575.72;5027696;28;20079;-30
2022/04/24 00:52:14;;;;;;;14.85;7.40;;;;;;;13.12;71.61;99575.56;5027218;28;20034;-30
2022/04/24 00:54:41;;;;;;;10.77;8.02;;;;;;;13.08;71.77;99585.16;5026839;28;20112;-28
2022/04/24 00:57:10;;;;;;;11.95;7.80;;;;;;;13.05;71.15;99566.91;5027313;28;20064;-28
2022/04/24 00:59:39;;;;;;;12.77;7.88;;;;;;;13.22;70.81;99589.09;5025966;28;20037;-30
2022/04/24 01:02:06;;;;;;;15.85;8.48;;;;;;;13.32;69.93;99560.84;5025738;28;20117;-32
2022/04/24 01:04:36;;;;;;;13.52;8.00;;;;;;;13.20;71.26;99574.34;5026720;28;20117;-30
2022/04/24 01:07:02;;;;;;;14.48;7.82;;;;;;;13.19;72.07;99581.53;5031053;28;20064;-30
2022/04/24 01:09:34;;;;;;;12.20;7.03;;;;;;;13.22;70.76;99578.38;5031269;28;20041;-32
2022/04/24 01:12:00;;;;;;;14.43;7.88;;;;;;;13.23;70.37;99590.69;5029746;28;20433;-33
2022/04/24 01:14:27;;;;;;;14.88;8.57;;;;;;;12.90;71.03;99583.56;5029416;28;20505;-30
2022/04/24 01:16:53;;;;;;;15.82;8.50;;;;;;;12.68;71.54;99588.84;5029506;28;20529;-33
2022/04/24 01:19:19;;;;;;;16.70;9.10;;;;;;;12.55;72.70;99594.53;5030823;28;20069;-29
2022/04/24 01:21:47;;;;;;;16.50;9.27;;;;;;;12.67;72.10;99589.91;5029077;28;20036;-30
2022/04/24 01:24:14;;;;;;;18.05;8.68;;;;;;;12.53;72.35;99580.59;5031052;28;20029;-29
2022/04/24 01:26:40;;;;;;;15.95;9.10;;;;;;;12.49;73.24;99566.09;5030738;28;20033;-33
2022/04/24 01:29:06;;;;;;;12.82;8.55;;;;;;;12.48;73.06;99567.13;5030436;28;20413;-31
2022/04/24 01:31:34;;;;;;;14.27;8.70;;;;;;;12.30;73.48;99565.50;5030747;28;20108;-30
2022/04/24 01:34:00;;;;;;;;;;;;;;;12.50;74.35;99594.44;5031018;28;20029;-33
2022/04/24 01:36:26;;;;;;;18.38;8.52;;;;;;;12.20;75.20;99576.84;5030062;28;20011;-30
2022/04/24 01:38:52;;;;;;;17.60;8.93;;;;;;;11.83;77.25;99583.41;5030377;28;20120;-29
2022/04/24 01:41:17;;;;;;;13.63;8.13;;;;;;;11.96;76.10;99593.00;5030408;28;20033;-31
2022/04/24 01:43:43;;;;;;;15.07;8.48;;;;;;;12.34;73.50;99580.84;5030541;28;20030;-29
2022/04/24 01:46:09;;;;;;;28.40;14.02;;;;;;;12.17;73.39;99578.13;5030382;28;20045;-31
2022/04/24 01:48:35;;;;;;;24.67;11.35;;;;;;;11.99;75.42;99581.84;5030056;28;20033;-30
2022/04/24 01:51:02;;;;;;;20.90;10.18;;;;;;;12.06;75.72;99598.53;5030124;28;20049;-30
2022/04/24 01:53:28;;;;;;;18.60;9.27;;;;;;;11.97;76.66;99610.69;5028897;28;20513;-29
2022/04/24 01:55:57;;;;;;;15.85;9.43;;;;;;;12.05;75.23;99594.25;5028702;28;20561;-35
2022/04/24 01:58:22;;;;;;;;;;;;;;;11.44;77.34;99615.22;5029058;28;20029;-29
2022/04/24 02:00:48;;;;;;;11.35;7.53;;;;;;;11.46;77.64;99612.28;5028682;28;20389;-33
2022/04/24 02:03:13;;;;;;;14.18;8.80;;;;;;;12.01;75.41;99614.50;5029801;28;20033;-29
2022/04/24 02:05:39;;;;;;;18.50;11.38;;;;;;;11.99;75.87;99605.91;5030216;28;20439;-29
2022/04/24 02:08:05;;;;;;;20.05;10.10;;;;;;;11.96;76.39;99603.69;5030215;28;20033;-31
2022/04/24 02:10:31;;;;;;;13.85;9.15;;;;;;;11.85;77.66;99609.88;5028515;28;20030;-30
2022/04/24 02:12:56;;;;;;;20.38;9.80;;;;;;;11.66;78.11;99610.03;5029835;28;20049;-30
2022/04/24 02:15:22;;;;;;;14.68;8.27;;;;;;;11.48;76.75;99607.53;5029829;28;20029;-30
2022/04/24 02:17:47;;;;;;;14.60;8.45;;;;;;;11.44;79.40;99598.38;5029349;28;20497;-32
2022/04/24 02:20:13;;;;;;;17.80;9.18;;;;;;;11.29;79.91;99582.03;5029729;28;20021;-30
2022/04/24 02:22:38;;;;;;;18.58;10.32;;;;;;;11.32;79.41;99586.91;5029638;28;20037;-29
2022/04/24 02:25:04;;;;;;;15.80;9.05;;;;;;;11.33;78.94;99604.56;5028352;28;20109;-30
2022/04/24 02:27:30;;;;;;;19.70;9.65;;;;;;;11.43;79.03;99599.44;5029866;28;20029;-34
2022/04/24 02:29:56;;;;;;;13.18;7.80;;;;;;;11.25;78.21;99597.72;5029482;28;20660;-29
2022/04/24 02:32:22;;;;;;;10.50;6.43;;;;;;;10.98;79.36;99608.06;5027444;28;20036;-32
2022/04/24 02:34:47;;;;;;;13.27;7.57;;;;;;;10.89;80.08;99598.78;5027648;28;20523;-29
2022/04/24 02:37:13;;;;;;;18.02;7.75;;;;;;;11.09;79.40;99593.09;5027803;28;20055;-29
2022/04/24 02:39:38;;;;;;;11.02;7.18;;;;;;;11.28;78.80;99618.63;5029413;28;20021;-29
2022/04/24 02:42:04;;;;;;;15.48;7.45;;;;;;;11.36;78.13;99606.75;5029088;28;20037;-30
2022/04/24 02:44:30;;;;;;;11.98;7.30;;;;;;;11.34;79.00;99619.50;5029126;28;20037;-29
2022/04/24 02:46:55;;;;;;;12.82;7.10;;;;;;;11.63;76.90;99621.19;5029055;28;20056;-31
2022/04/24 02:49:20;;;;;;;13.57;7.78;;;;;;;11.56;76.55;99625.84;5027742;28;20033;-29
2022/04/24 02:51:46;;;;;;;12.07;7.28;;;;;;;11.58;76.62;99621.09;5027792;28;20033;-30
2022/04/24 02:54:12;;;;;;;14.73;8.63;;;;;;;11.25;79.26;99637.75;5027825;28;20055;-35
2022/04/24 02:56:37;;;;;;;12.15;8.15;;;;;;;11.02;80.08;99619.91;5029022;28;20025;-28
2022/04/24 02:59:03;;;;;;;13.65;8.00;;;;;;;11.44;77.91;99638.41;5029279;28;20405;-29
2022/04/24 03:01:30;;;;;;;14.40;7.80;;;;;;;11.23;79.23;99651.31;5028995;28;20457;-30
2022/04/24 03:03:58;;;;;;;16.25;8.10;;;;;;;10.76;81.27;99648.63;5028748;28;20033;-30
2022/04/24 03:06:24;;;;;;;12.52;8.15;;;;;;;11.17;78.91;99649.59;5027422;28;20106;-30
2022/04/24 03:08:50;;;;;;;13.38;7.90;;;;;;;11.40;77.59;99655.94;5029001;28;20033;-30
2022/04/24 03:11:16;;;;;;;13.05;7.95;;;;;;;11.27;77.74;99647.13;5028954;28;20030;-32
2022/04/24 03:13:41;;;;;;;16.13;8.20;;;;;;;10.71;80.58;99661.88;5028641;28;20051;-32
2022/04/24 03:16:07;;;;;;;16.60;8.80;;;;;;;11.16;77.86;99669.31;5028736;28;20036;-29
2022/04/24 03:18:32;;;;;;;14.40;8.32;;;;;;;11.14;77.13;99668.75;5026984;28;20870;-31
2022/04/24 03:20:58;;;;;;;13.35;8.43;;;;;;;11.15;78.15;99667.69;5028820;28;20471;-29
2022/04/24 03:23:24;;;;;;;12.30;7.95;;;;;;;11.04;78.51;99672.00;5028749;28;20030;-32
2022/04/24 03:25:50;;;;;;;12.43;7.95;;;;;;;10.98;77.62;99669.44;5027115;28;20037;-28
2022/04/24 03:28:17;;;;;;;12.10;8.10;;;;;;;10.79;78.00;99666.88;5027955;28;20375;-31
2022/04/24 03:30:43;;;;;;;11.93;8.20;;;;;;;11.02;77.67;99674.06;5028297;28;20037;-29
2022/04/24 03:33:08;;;;;;;12.40;8.45;;;;;;;10.88;77.84;99671.88;5028623;28;20033;-30
2022/04/24 03:35:34;;;;;;;14.73;7.53;;;;;;;10.58;80.11;99694.91;5028151;28;20132;-31
2022/04/24 03:37:59;;;;;;;13.13;7.53;;;;;;;10.23;81.75;99698.19;5028435;28;20033;-31
2022/04/24 03:40:25;;;;;;;13.18;8.15;;;;;;;10.00;81.86;99682.91;5028083;28;20029;-29
2022/04/24 03:42:50;;;;;;;15.25;7.90;;;;;;;10.41;80.62;99700.03;5028154;28;20402;-29
2022/04/24 03:45:16;;;;;;;12.25;8.27;;;;;;;10.97;77.92;99705.16;5028038;28;20021;-33
2022/04/24 03:47:41;;;;;;;14.73;7.95;;;;;;;10.74;79.29;99703.25;5028047;28;20218;-29
2022/04/24 03:50:07;;;;;;;13.63;8.00;;;;;;;10.76;80.35;99699.31;5028244;28;20099;-31
2022/04/24 03:52:33;;;;;;;12.32;8.05;;;;;;;10.69;80.84;99706.63;5028035;28;20034;-31
2022/04/24 03:54:58;;;;;;;15.25;8.10;;;;;;;10.79;81.26;99704.22;5026803;28;20030;-29
2022/04/24 03:57:25;;;;;;;12.82;8.10;;;;;;;10.94;79.21;99693.09;5026516;28;20087;-30
2022/04/24 03:59:50;;;;;;;14.00;7.75;;;;;;;10.83;79.70;99718.72;5027996;28;20100;-29
2022/04/24 04:02:16;;;;;;;19.80;8.75;;;;;;;10.57;80.79;99724.44;5027474;28;20112;-32
2022/04/24 04:04:42;;;;;;;12.68;6.63;;;;;;;10.68;80.60;99718.31;5027757;28;20501;-31
2022/04/24 04:07:07;;;;;;;14.63;6.68;;;;;;;10.44;81.80;99715.59;5026491;28;20036;-30
2022/04/24 04:09:33;;;;;;;16.45;6.63;;;;;;;10.46;81.13;99718.00;5027671;28;20026;-29
2022/04/24 04:11:58;;;;;;;11.98;7.03;;;;;;;10.84;79.26;99736.34;5027775;28;20033;-31
2022/04/24 04:14:24;;;;;;;14.70;6.82;;;;;;;11.23;78.03;99738.59;5027348;28;20605;-31
2022/04/24 04:16:50;;;;;;;16.05;7.50;;;;;;;11.58;77.02;99735.94;5027918;28;20485;-29
2022/04/24 04:19:16;;;;;;;12.68;6.15;;;;;;;11.30;77.69;99741.16;5027830;28;20061;-29
2022/04/24 04:21:42;;;;;;;10.63;5.85;;;;;;;11.14;78.11;99743.47;5027431;28;20893;-30
2022/04/24 04:24:09;;;;;;;10.57;6.15;;;;;;;11.43;77.45;99743.59;5026015;28;20068;-30
2022/04/24 04:26:36;;;;;;;8.63;6.30;;;;;;;11.34;77.33;99740.47;5027670;28;20560;-31
2022/04/24 04:29:01;;;;;;;10.82;6.20;;;;;;;11.19;77.58;99732.91;5027498;28;20022;-29
2022/04/24 04:31:27;;;;;;;14.85;9.98;;;;;;;11.50;76.65;99741.63;5027365;28;20029;-29
2022/04/24 04:33:52;;;;;;;13.73;9.73;;;;;;;11.35;77.67;99751.97;5027666;28;20041;-33
2022/04/24 04:36:18;;;;;;;13.45;8.38;;;;;;;11.40;78.21;99749.41;5026988;28;20045;-30
2022/04/24 04:38:43;;;;;;;14.55;7.60;;;;;;;11.83;76.66;99761.59;5027131;28;20021;-30
2022/04/24 04:41:09;;;;;;;12.30;7.57;;;;;;;12.02;75.66;99760.41;5027049;28;20433;-33
2022/04/24 04:43:34;;;;;;;14.70;7.38;;;;;;;12.01;75.73;99744.59;5027017;28;20036;-30
2022/04/24 04:46:00;;;;;;;10.68;7.57;;;;;;;12.05;76.78;99749.28;5027036;28;20043;-32
2022/04/24 04:48:26;;;;;;;12.32;7.43;;;;;;;11.80;77.73;99765.53;5025620;28;20095;-30
2022/04/24 04:50:52;;;;;;;12.57;7.25;;;;;;;11.58;80.10;99749.28;5027080;28;20116;-32
2022/04/24 04:53:17;;;;;;;12.20;7.40;;;;;;;11.81;80.12;99769.00;5026462;28;20100;-30
2022/04/24 04:55:43;;;;;;;14.68;7.38;;;;;;;12.00;80.03;99767.84;5025537;28;20053;-29
2022/04/24 04:58:08;;;;;;;11.25;7.65;;;;;;;11.90;80.15;99740.13;5026900;28;20060;-29
2022/04/24 05:00:34;;;;;;;11.73;7.03;;;;;;;11.94;79.84;99741.28;5026525;28;20116;-31
2022/04/24 05:02:59;;;;;;;13.38;7.32;;;;;;;12.21;80.23;99760.25;5025635;28;20025;-29
2022/04/24 05:05:25;;;;;;;10.60;6.85;;;;;;;12.38;78.98;99761.13;5026421;28;20060;-29
2022/04/24 05:07:51;;;;;;;10.38;6.80;;;;;;;12.50;78.17;99763.75;5026279;28;20087;-31
2022/04/24 05:10:17;;;;;;;10.75;6.88;;;;;;;12.74;77.80;99764.47;5024882;28;20029;-36
2022/04/24 05:12:43;;;;;;;10.32;7.25;;;;;;;12.94;75.93;99752.50;5026960;28;20424;-30
2022/04/24 05:15:13;;;;;;;11.23;7.30;;;;;;;13.11;75.42;99747.94;5025053;28;20053;-32
2022/04/24 05:17:40;;;;;;;12.35;8.10;;;;;;;13.42;75.51;99769.88;5025941;28;20033;-32
2022/04/24 05:20:09;;;;;;;12.63;8.17;;;;;;;13.56;75.89;99752.41;5021775;28;20021;-30
2022/04/24 05:22:34;;;;;;;11.63;7.47;;;;;;;13.90;75.59;99765.75;5025620;28;20402;-31
2022/04/24 05:25:00;;;;;;;11.10;7.80;;;;;;;13.99;74.45;99753.53;5024893;28;20037;-33
2022/04/24 05:27:27;;;;;;;11.70;7.75;;;;;;;14.16;74.10;99763.38;5022662;28;20505;-32
2022/04/24 05:29:53;;;;;;;11.43;7.18;;;;;;;14.42;72.49;99754.56;5025608;28;20021;-33
2022/04/24 05:32:18;;;;;;;10.27;6.88;;;;;;;14.63;71.59;99746.78;5024621;28;20045;-29
2022/04/24 05:34:44;;;;;;;10.00;6.53;;;;;;;14.84;70.46;99759.31;5025284;28;20034;-31
2022/04/24 05:37:11;;;;;;;12.05;6.97;;;;;;;14.83;70.03;99746.16;5023312;28;20057;-33
2022/04/24 05:39:37;;;;;;;11.90;7.30;;;;;;;14.91;69.99;99763.66;5025248;28;20026;-29
2022/04/24 05:42:03;;;;;;;10.88;6.50;;;;;;;14.77;70.36;99765.97;5025122;28;20033;-29
2022/04/24 05:44:28;;;;;;;10.18;5.97;;;;;;;14.86;71.07;99757.19;5025232;28;20037;-29
2022/04/24 05:46:54;;;;;;;11.70;5.75;;;;;;;14.85;71.74;99758.28;5026160;28;20029;-30
2022/04/24 05:49:19;;;;;;;8.65;5.70;;;;;;;15.27;70.92;99757.53;5025156;28;20039;-29
2022/04/24 05:51:45;;;;;;;10.45;5.88;;;;;;;15.57;70.30;99772.25;5027696;28;20034;-29
2022/04/24 05:54:11;;;;;;;12.15;5.57;;;;;;;15.23;71.63;99745.69;5030095;28;20033;-29
2022/04/24 05:56:38;;;;;;;11.00;6.00;;;;;;;15.45;70.04;99752.84;5028277;28;20029;-31
2022/04/24 05:59:04;;;;;;;13.52;6.00;;;;;;;15.74;68.38;99763.25;5030128;28;20533;-30
2022/04/24 06:01:29;;;;;;;10.45;6.03;;;;;;;15.91;66.71;99766.56;5028414;28;20068;-30
2022/04/24 06:03:56;;;;;;;12.88;5.75;;;;;;;16.19;63.67;99762.66;5028096;28;20021;-33
2022/04/24 06:06:21;;;;;;;10.68;5.93;;;;;;;15.92;65.85;99757.44;5029651;28;20453;-34
2022/04/24 06:08:46;;;;;;;12.15;6.22;;;;;;;16.17;64.09;99767.47;5029380;28;20029;-33
2022/04/24 06:11:12;;;;;;;10.70;6.03;;;;;;;16.11;66.03;99754.28;5027796;28;20041;-30
2022/04/24 06:13:39;;;;;;;12.65;6.15;;;;;;;16.18;64.96;99746.75;5029553;28;20541;-29
2022/04/24 06:16:05;;;;;;;12.68;6.18;;;;;;;16.38;65.32;99751.41;5029700;28;20036;-34
2022/04/24 06:18:31;;;;;;;11.38;6.20;;;;;;;16.24;65.20;99769.91;5028797;28;20063;-30
2022/04/24 06:20:56;;;;;;;11.82;6.18;;;;;;;16.51;63.99;99772.44;5029846;28;20052;-32
2022/04/24 06:23:22;;;;;;;11.48;6.43;;;;;;;16.75;65.23;99763.88;5029341;28;20037;-34
2022/04/24 06:25:47;;;;;;;11.63;7.22;;;;;;;16.72;64.54;99759.84;5011453;28;20115;-29
2022/04/24 06:28:13;;;;;;;14.68;7.40;;;;;;;16.98;64.63;99741.03;5027699;28;20049;-32
2022/04/24 06:30:42;;;;;;;13.27;6.53;;;;;;;17.15;64.33;99757.75;5027802;28;20397;-35
2022/04/24 06:33:11;;;;;;;13.00;6.13;;;;;;;17.08;63.17;99741.06;5029606;28;20037;-32
2022/04/24 06:35:37;;;;;;;13.20;6.38;;;;;;;17.36;62.53;99736.16;5027673;28;20148;-30
2022/04/24 06:38:03;;;;;;;11.50;6.00;;;;;;;17.79;61.74;99760.88;5027824;28;20032;-31
2022/04/24 06:40:28;;;;;;;12.38;5.47;;;;;;;18.00;62.89;99762.47;5027301;28;20041;-30
2022/04/24 06:43:00;;;;;;;11.20;5.75;;;;;;;17.96;62.09;99757.88;5029307;28;20025;-29
2022/04/24 06:45:43;;;;;;;10.65;5.55;;;;;;;17.81;61.99;99731.75;5029076;28;20034;-30
2022/04/24 06:48:11;;;;;;;10.85;6.22;;;;;;;18.14;62.39;99756.47;5027720;28;20047;-30
2022/04/24 06:50:39;;;;;;;11.15;6.05;;;;;;;18.41;60.25;99745.28;5027382;28;20033;-29
2022/04/24 06:53:07;;;;;;;9.48;5.78;;;;;;;18.71;59.83;99759.69;5028731;28;20033;-32
2022/04/24 06:55:36;;;;;;;16.65;6.63;;;;;;;18.91;59.74;99756.88;5029032;28;20044;-35
2022/04/24 06:58:03;;;;;;;14.75;6.03;;;;;;;18.91;61.62;99742.56;5027440;28;20045;-30
2022/04/24 07:00:29;;;;;;;8.00;5.15;;;;;;;19.09;58.46;99762.69;5027223;28;20033;-31
2022/04/24 07:02:55;;;;;;;10.38;4.88;;;;;;;18.96;57.81;99762.25;5028277;28;20136;-29
2022/04/24 07:05:22;;;;;;;10.70;4.88;;;;;;;19.18;56.43;99764.47;5027189;28;20529;-29
2022/04/24 07:07:48;;;;;;;9.45;5.20;;;;;;;19.06;57.66;99750.53;5028754;28;20063;-36
2022/04/24 07:10:14;;;;;;;9.38;4.60;;;;;;;19.34;53.31;99750.84;5029026;28;20029;-30
2022/04/24 07:12:58;;;;;;;9.80;4.60;;;;;;;19.31;55.14;99751.41;5010371;28;20529;-29
2022/04/24 07:15:24;;;;;;;6.63;4.28;;;;;;;19.74;56.07;99759.69;5028674;28;20509;-32
2022/04/24 07:17:51;;;;;;;11.68;4.63;;;;;;;20.04;55.17;99753.91;5027761;28;20040;-34
2022/04/24 07:20:19;;;;;;;7.00;4.40;;;;;;;20.20;54.49;99757.22;5026598;28;20033;-38
2022/04/24 07:22:52;;;;;;;8.43;4.20;;;;;;;20.55;51.18;99762.44;5028034;28;20504;-29
2022/04/24 07:25:25;;;;;;;18.33;4.70;;;;;;;20.54;52.44;99761.66;5028481;28;20033;-31
2022/04/24 07:27:51;;;;;;;10.35;3.78;;;;;;;20.32;50.17;99747.88;5028017;28;20049;-29
2022/04/24 07:30:18;;;;;;;8.90;5.28;;;;;;;20.34;50.17;99765.44;5028050;28;20109;-36
2022/04/24 07:32:44;;;;;;;11.43;4.10;;;;;;;20.31;49.89;99752.50;5028405;28;20037;-31
2022/04/24 07:35:15;;;;;;;12.88;4.22;;;;;;;20.41;50.28;99763.19;5026655;28;20033;-32
2022/04/24 07:37:41;;;;;;;8.55;3.90;;;;;;;20.63;48.53;99764.53;5027226;28;20417;-30
2022/04/24 07:40:10;;;;;;;8.43;3.65;;;;;;;20.73;50.23;99764.38;5027976;28;20036;-31
2022/04/24 07:42:44;;;;;;;32.58;15.85;;;;;;;21.18;49.85;99762.03;5026869;28;20041;-30
2022/04/24 07:45:11;;;;;;;10.98;3.72;;;;;;;21.34;45.01;99761.78;5027753;28;20064;-31
2022/04/24 07:47:36;;;;;;;9.43;3.22;;;;;;;21.40;46.24;99741.63;5026521;28;20060;-30
2022/04/24 07:50:02;;;;;;;9.60;3.60;;;;;;;21.37;48.15;99739.47;5026440;28;20057;-31
2022/04/24 07:52:27;;;;;;;9.30;3.53;;;;;;;21.53;46.59;99749.00;5025274;28;20754;-30
2022/04/24 07:54:53;;;;;;;11.90;4.57;;;;;;;21.79;45.35;99753.94;5025492;28;20033;-38
2022/04/24 07:57:18;;;;;;;7.72;3.58;;;;;;;21.65;46.19;99740.38;5025457;28;20115;-32
2022/04/24 07:59:44;;;;;;;9.88;4.10;;;;;;;21.52;48.30;99735.75;5022745;28;20041;-29
2022/04/24 08:02:10;;;;;;;9.13;3.50;;;;;;;21.88;48.33;99733.13;5022462;28;20025;-31
2022/04/24 08:04:36;;;;;;;10.48;4.00;;;;;;;22.15;46.18;99737.75;5016422;28;20041;-32
2022/04/24 08:07:02;;;;;;;7.68;3.63;;;;;;;22.31;47.00;99730.06;5005751;28;20030;-30
2022/04/24 08:09:27;;;;;;;13.48;3.72;;;;;;;22.22;48.12;99740.84;5007215;28;20910;-30
2022/04/24 08:11:52;;;;;;;11.00;3.67;;;;;;;22.36;46.19;99738.13;5023407;28;20037;-36
2022/04/24 08:14:19;;;;;;;9.05;3.80;;;;;;;22.11;48.10;99725.88;5025626;28;20029;-31
2022/04/24 08:16:45;;;;;;;9.48;3.55;;;;;;;22.58;45.18;99733.84;5025125;28;20409;-30
2022/04/24 08:19:11;;;;;;;9.40;3.53;;;;;;;22.68;45.86;99728.19;5025413;28;20045;-30
2022/04/24 08:21:36;;;;;;;10.80;3.58;;;;;;;22.86;45.81;99735.34;5026777;28;20089;-30
2022/04/24 08:24:02;;;;;;;10.00;3.50;;;;;;;22.99;47.84;99732.88;5025196;28;20025;-32
2022/04/24 08:26:27;;;;;;;13.00;3.55;;;;;;;23.06;48.40;99722.38;5024963;28;20506;-32
2022/04/24 08:28:53;;;;;;;10.30;3.35;;;;;;;23.26;46.45;99721.06;5024838;28;20037;-36
2022/04/24 08:31:18;;;;;;;10.50;3.72;;;;;;;23.15;47.44;99703.38;5026585;28;20029;-31
2022/04/24 08:33:43;;;;;;;10.18;3.83;;;;;;;23.10;45.84;99706.25;5025989;28;20556;-31
2022/04/24 08:36:09;;;;;;;7.57;3.50;;;;;;;23.52;45.88;99701.31;5026503;28;20130;-30
2022/04/24 08:38:34;;;;;;;12.77;3.45;;;;;;;23.75;45.37;99705.56;5026158;28;20449;-30
2022/04/24 08:41:00;;;;;;;12.75;3.65;;;;;;;23.78;44.46;99707.72;5026543;28;20033;-30
2022/04/24 08:43:26;;;;;;;11.57;3.60;;;;;;;23.96;46.55;99702.28;5026636;28;20033;-31
2022/04/24 08:45:53;;;;;;;10.93;4.15;;;;;;;23.98;42.91;99703.56;5026554;28;20037;-32
2022/04/24 08:48:19;;;;;;;9.60;3.50;;;;;;;24.00;44.11;99690.44;5026213;28;20034;-30
2022/04/24 08:50:46;;;;;;;11.02;3.92;;;;;;;24.12;43.28;99691.75;5026915;28;20061;-29
2022/04/24 08:53:12;;;;;;;13.23;3.53;;;;;;;23.98;41.80;99683.72;5026166;28;20025;-30
2022/04/24 08:55:38;;;;;;;10.30;3.63;;;;;;;23.79;46.55;99689.44;5026012;28;20107;-34
2022/04/24 08:58:04;;;;;;;7.90;2.80;;;;;;;24.06;42.98;99689.16;5025835;28;20044;-31
2022/04/24 09:00:30;;;;;;;12.25;3.40;;;;;;;23.95;42.34;99674.25;5026282;28;20029;-31
2022/04/24 09:02:59;;;;;;;13.10;3.83;;;;;;;24.04;43.00;99682.44;5025726;28;20040;-30
2022/04/24 09:05:25;;;;;;;10.23;3.40;;;;;;;24.05;42.72;99663.06;5026110;28;20033;-30
2022/04/24 09:07:53;;;;;;;9.13;3.30;;;;;;;23.91;42.53;99664.34;5025072;28;20021;-35
2022/04/24 09:10:19;;;;;;;11.52;3.60;;;;;;;23.99;42.05;99669.00;5025818;28;20743;-32
2022/04/24 09:12:53;;;;;;;11.18;3.65;;;;;;;24.17;42.60;99667.06;5026668;28;20037;-29
2022/04/24 09:15:18;;;;;;;9.95;3.10;;;;;;;24.50;42.42;99669.34;5025566;28;20049;-30
2022/04/24 09:17:44;;;;;;;14.65;4.30;;;;;;;24.55;44.88;99656.34;5024734;28;20582;-29
2022/04/24 09:20:19;;;;;;;14.43;4.68;;;;;;;24.89;42.54;99662.88;5025836;28;20029;-32
2022/04/24 09:22:45;;;;;;;10.32;3.67;;;;;;;25.20;41.98;99664.56;5026360;28;20036;-32
2022/04/24 09:25:12;;;;;;;7.40;3.53;;;;;;;25.13;41.71;99651.44;5025493;28;20041;-31
2022/04/24 09:27:39;;;;;;;11.23;3.53;;;;;;;25.23;39.44;99669.38;5026877;28;20508;-30
2022/04/24 09:30:10;;;;;;;11.57;3.80;;;;;;;25.25;41.01;99667.13;5027729;28;20021;-31
2022/04/24 09:32:46;;;;;;;8.95;3.00;;;;;;;25.41;40.20;99660.00;5027646;28;20691;-33
2022/04/24 09:35:32;;;;;;;14.03;4.47;;;;;;;25.49;39.58;99643.91;5028888;28;20120;-34
2022/04/24 09:38:08;;;;;;;12.52;3.60;;;;;;;25.55;40.46;99654.31;5029308;28;20636;-30
2022/04/24 09:40:45;;;;;;;9.60;3.38;;;;;;;25.34;40.26;99643.34;5027726;28;20041;-35
2022/04/24 09:43:12;;;;;;;15.70;3.80;;;;;;;25.54;40.29;99647.28;5029266;28;20087;-33
2022/04/24 09:45:46;;;;;;;12.95;3.53;;;;;;;25.55;41.06;99631.69;5027813;28;20109;-35
2022/04/24 09:48:18;;;;;;;10.18;3.92;;;;;;;25.63;39.55;99628.09;5028024;28;20458;-33
2022/04/24 09:50:44;;;;;;;12.18;3.95;;;;;;;25.92;39.91;99619.09;5029353;28;20039;-31
2022/04/24 09:53:14;;;;;;;12.02;3.65;;;;;;;26.26;38.57;99620.75;5029483;28;20033;-30
2022/04/24 09:55:44;;;;;;;13.75;3.60;;;;;;;26.22;39.53;99622.56;5027482;28;20033;-39
2022/04/24 09:58:12;;;;;;;8.73;3.10;;;;;;;26.05;38.69;99615.31;5027520;28;20083;-30
2022/04/24 10:00:38;;;;;;;9.07;3.30;;;;;;;26.17;40.35;99609.09;5028766;28;20059;-33
2022/04/24 10:03:04;;;;;;;7.00;3.03;;;;;;;26.34;38.65;99613.63;5026257;28;20095;-32
2022/04/24 10:05:31;;;;;;;10.32;3.65;;;;;;;26.37;39.67;99628.53;5010534;28;20029;-29
2022/04/24 10:07:59;;;;;;;13.00;3.33;;;;;;;26.48;40.13;99607.03;5028231;28;20029;-30
2022/04/24 10:10:24;;;;;;;12.23;3.15;;;;;;;26.22;39.27;99610.84;5010820;28;20034;-29
2022/04/24 10:12:51;;;;;;;12.38;3.25;;;;;;;26.44;39.02;99615.16;5027754;28;20041;-30
2022/04/24 10:15:19;;;;;;;13.23;4.27;;;;;;;26.55;38.55;99607.31;5027655;28;20029;-31
2022/04/24 10:18:03;;;;;;;12.75;3.78;;;;;;;26.70;38.34;99609.41;5028595;28;20811;-38
2022/04/24 10:21:06;;;;;;;12.45;3.25;;;;;;;26.81;37.85;99604.34;5023411;28;20045;-33
2022/04/24 10:23:37;;;;;;;19.02;4.07;;;;;;;26.75;38.65;99590.06;5010133;28;20414;-32
2022/04/24 10:26:14;;;;;;;11.27;3.13;;;;;;;27.10;38.00;99589.66;5015066;28;20026;-30
2022/04/24 10:28:40;;;;;;;10.52;3.13;;;;;;;26.83;38.69;99589.16;5027856;28;20036;-37
2022/04/24 10:31:09;;;;;;;10.27;3.45;;;;;;;27.44;36.79;99591.16;5023596;28;20037;-32
2022/04/24 10:33:36;;;;;;;10.93;3.40;;;;;;;27.67;36.35;99603.59;5027560;28;20781;-30
2022/04/24 10:36:11;;;;;;;11.20;3.58;;;;;;;27.60;36.15;99613.19;5027694;28;20099;-33
2022/04/24 10:39:19;;;;;;;13.27;4.10;;;;;;;27.58;35.80;99610.00;5027143;28;20100;-30
2022/04/24 10:42:00;;;;;;;16.40;4.00;;;;;;;27.55;34.31;99588.75;4996342;28;20041;-35
2022/04/24 10:44:26;;;;;;;9.68;2.95;;;;;;;27.80;35.05;99599.66;5025389;28;20124;-33
2022/04/24 10:46:54;;;;;;;15.15;3.70;;;;;;;27.49;34.90;99590.13;5024509;28;20044;-32
2022/04/24 10:49:20;;;;;;;13.63;3.47;;;;;;;27.12;35.38;99570.16;5027754;28;20551;-30
2022/04/24 10:51:58;;;;;;;12.55;3.47;;;;;;;27.47;33.50;99592.41;5026278;28;20033;-30
2022/04/24 10:54:52;;;;;;;11.60;3.63;;;;;;;27.19;35.69;99576.63;5009873;28;20132;-33
2022/04/24 10:57:22;;;;;;;13.05;3.67;;;;;;;27.09;35.45;99566.16;5025979;28;20460;-30
2022/04/24 10:59:53;;;;;;;14.05;3.67;;;;;;;27.82;36.11;99578.19;5027284;28;20040;-36
2022/04/24 11:02:30;;;;;;;12.02;3.30;;;;;;;27.54;35.38;99565.22;5027294;28;20026;-30
2022/04/24 11:05:06;;;;;;;12.65;3.60;;;;;;;27.26;36.29;99576.13;5025829;28;20041;-30
2022/04/24 11:07:33;;;;;;;14.90;4.40;;;;;;;27.51;35.50;99559.66;5026406;28;20034;-35
2022/04/24 11:10:06;;;;;;;12.18;3.22;;;;;;;27.81;35.01;99562.91;5026153;28;20296;-34
2022/04/24 11:12:33;;;;;;;13.48;3.58;;;;;;;27.67;35.20;99563.28;5026850;28;20029;-31
2022/04/24 11:15:03;;;;;;;13.65;4.53;;;;;;;27.96;34.44;99548.50;5027447;28;20564;-31
2022/04/24 11:17:29;;;;;;;14.85;4.55;;;;;;;27.76;33.81;99549.44;5027172;28;20065;-36
2022/04/24 11:19:59;;;;;;;10.60;3.80;;;;;;;28.31;33.77;99541.59;5027042;28;20486;-30
2022/04/24 11:22:25;;;;;;;16.27;3.80;;;;;;;28.15;34.32;99545.09;5027363;28;20056;-36
2022/04/24 11:24:55;;;;;;;10.30;3.83;;;;;;;28.57;35.41;99532.91;5026550;28;20056;-29
2022/04/24 11:27:25;;;;;;;13.55;4.43;;;;;;;28.57;32.76;99524.69;5025719;28;20037;-32